Morania No 6 — WBQ7544 — position and weather

sailwx.info

Track history (hours):
 
Tides and Currents Weather Stations Pressure Air Temp Water Temp Dewpoint Dewpoint Depression Visibility Wind Speed Wind Dir Waves Ship Positions

Morania No 6

Owner: PENN MARITIME INC, Seattle, WA. More information available from US FCC via Universal Licensing System and Coast Guard Vessel Documentation Center.

Last reported at 2015-Jan-29 05:09 UTC. Time now 2015-Jan-29 14:23 UTC.
Position N 29°18' W 094°49'.

Length 45 m; draft 4.9 m.

MMSI: 366920970.

Date/timePositionNaut miles runAvg speedWind from/ knotsBaromVisibWave heightAir tempDewpointWater temp
2015-Jan-29 05:09N 29°18' W 094°49'0 0.0
2015-Jan-29 04:15N 29°18' W 094°49'0 0.0
2015-Jan-29 03:30N 29°18' W 094°49'8 3.9
2015-Jan-29 01:27N 29°26' W 094°50'1011.2
2015-Jan-29 00:33N 29°35' W 094°56'1010.3
2015-Jan-28 23:33N 29°44' W 095°02'4 3.5
2015-Jan-28 22:30N 29°45' W 095°06'0 0.0
2015-Jan-28 21:30N 29°45' W 095°06'0 0.0
2015-Jan-28 20:27N 29°45' W 095°06'0 0.0
2015-Jan-28 19:33N 29°45' W 095°06'0 0.3
2015-Jan-28 18:33N 29°45' W 095°06'5 4.9
2015-Jan-28 17:33N 29°42' W 095°01'8 7.2
2015-Jan-28 16:30N 29°36' W 094°57'7 7.4
2015-Jan-28 15:33N 29°30' W 094°52'12 6.2
2015-Jan-28 13:33N 29°21' W 094°43'121 5.0
2015-Jan-27 13:25N 29°10' W 092°24'1011.6
2015-Jan-27 12:33N 29°07' W 092°13'1312.2
2015-Jan-27 11:31N 29°03' W 091°60'1312.1
2015-Jan-27 10:26N 28°58' W 091°46'1312.0
2015-Jan-27 09:23N 28°53' W 091°33'1112.0
2015-Jan-27 08:27N 28°50' W 091°21'  
Track history (hours):
 
Tides and Currents Weather Stations Pressure Air Temp Water Temp Dewpoint Dewpoint Depression Visibility Wind Speed Wind Dir Waves Ship Positions

Morania No 6

Owner: PENN MARITIME INC, Seattle, WA. More information available from US FCC via Universal Licensing System and Coast Guard Vessel Documentation Center.

Last reported at 2015-Jan-29 05:09 UTC. Time now 2015-Jan-29 14:23 UTC.
Position N 29°18' W 094°49'.

Length 45 m; draft 4.9 m.

MMSI: 366920970.

Date/timePositionNaut miles runAvg speedWind from/ knotsBaromVisibWave heightAir tempDewpointWater temp
2015-Jan-29 05:09N 29°18' W 094°49'0 0.0
2015-Jan-29 04:15N 29°18' W 094°49'0 0.0
2015-Jan-29 03:30N 29°18' W 094°49'8 3.9
2015-Jan-29 01:27N 29°26' W 094°50'1011.2
2015-Jan-29 00:33N 29°35' W 094°56'1010.3
2015-Jan-28 23:33N 29°44' W 095°02'4 3.5
2015-Jan-28 22:30N 29°45' W 095°06'0 0.0
2015-Jan-28 21:30N 29°45' W 095°06'0 0.0
2015-Jan-28 20:27N 29°45' W 095°06'0 0.0
2015-Jan-28 19:33N 29°45' W 095°06'0 0.3
2015-Jan-28 18:33N 29°45' W 095°06'5 4.9
2015-Jan-28 17:33N 29°42' W 095°01'8 7.2
2015-Jan-28 16:30N 29°36' W 094°57'7 7.4
2015-Jan-28 15:33N 29°30' W 094°52'12 6.2
2015-Jan-28 13:33N 29°21' W 094°43'121 5.0
2015-Jan-27 13:25N 29°10' W 092°24'1011.6
2015-Jan-27 12:33N 29°07' W 092°13'1312.2
2015-Jan-27 11:31N 29°03' W 091°60'1312.1
2015-Jan-27 10:26N 28°58' W 091°46'1312.0
2015-Jan-27 09:23N 28°53' W 091°33'1112.0
2015-Jan-27 08:27N 28°50' W 091°21'  

Dump ship's entire track history